< < Back
Terminal Aerodrome Forecast


Current Version              Previous Versions:   1  2  3  4  5  6  7  8  9  

Terminal Aerodrome Forecast

077
FTUS42 KGSP 062337
TAFAVL
TAF
KAVL 062337Z 0700/0724 35008KT P6SM VCTS SCT045CB BKN250
     FM070200 VRB03KT P6SM BKN250
     FM070800 00000KT 5SM BR FEW250
     FM071000 00000KT 2SM BR FEW250
     FM071300 00000KT P6SM FEW250
     FM071600 26003KT P6SM SCT050 PROB30 0719/0724 4SM TSRA
      BKN040CB=

Latest METAR

058
SAUS70 KWBC 071300
MTRAVL
METAR KAVL 071254Z 00000KT 7SM CLR 19/16 A3023 RMK AO2 SLP212
T01890161


USA.gov is the U.S. government's official web portal to all federal, state and local government web resources and services.